createdAt,value
2022-10-18T00:00:51.321Z,99646.50
2022-10-18T00:03:18.385Z,99640.84
2022-10-18T00:05:46.580Z,99642.22
2022-10-18T00:08:13.690Z,99632.47
2022-10-18T00:10:40.786Z,99631.63
2022-10-18T00:13:07.813Z,99628.09
2022-10-18T00:15:34.942Z,99624.59
2022-10-18T00:18:02.033Z,99620.00
2022-10-18T00:20:29.064Z,99622.06
2022-10-18T00:22:56.094Z,99624.47
2022-10-18T00:25:23.119Z,99623.19
2022-10-18T00:27:50.161Z,99626.09
2022-10-18T00:30:17.345Z,99620.97
2022-10-18T00:32:44.389Z,99624.25
2022-10-18T00:35:11.439Z,99614.31
2022-10-18T00:37:38.468Z,99620.97
2022-10-18T00:40:06.207Z,99623.50
2022-10-18T00:42:34.822Z,99619.41
2022-10-18T00:45:04.718Z,99622.94
2022-10-18T00:47:32.742Z,99621.09
2022-10-18T00:50:02.113Z,99618.94
2022-10-18T00:52:35.124Z,99614.97
2022-10-18T00:55:03.184Z,99613.28
2022-10-18T00:57:30.408Z,99619.34
2022-10-18T00:59:57.556Z,99622.66
2022-10-18T01:02:24.974Z,99622.28
2022-10-18T01:04:52.152Z,99630.75
2022-10-18T01:07:27.804Z,99632.41
2022-10-18T01:10:02.440Z,99635.13
2022-10-18T01:12:35.257Z,99642.53
2022-10-18T01:15:05.711Z,99646.28
2022-10-18T01:17:44.001Z,99641.91
2022-10-18T01:20:23.074Z,99639.59
2022-10-18T01:23:00.809Z,99645.16
2022-10-18T01:25:46.768Z,99643.31
2022-10-18T01:28:14.093Z,99631.69
2022-10-18T01:30:55.495Z,99641.63
2022-10-18T01:33:31.767Z,99641.84
2022-10-18T01:36:02.504Z,99649.09
2022-10-18T01:38:31.474Z,99653.63
2022-10-18T01:41:00.116Z,99638.66
2022-10-18T01:43:27.663Z,99645.06
2022-10-18T01:45:55.254Z,99643.41
2022-10-18T01:48:23.070Z,99642.78
2022-10-18T01:50:50.179Z,99644.78
2022-10-18T01:53:24.972Z,99649.16
2022-10-18T01:56:00.014Z,99641.06
2022-10-18T01:58:48.587Z,99641.94
2022-10-18T02:01:36.020Z,99633.66
2022-10-18T02:04:06.999Z,99639.06
2022-10-18T02:06:36.990Z,99642.78
2022-10-18T02:09:24.449Z,99636.69
2022-10-18T02:11:52.506Z,99621.94
2022-10-18T02:14:21.343Z,99629.34
2022-10-18T02:16:53.835Z,99630.75
2022-10-18T02:19:36.018Z,99630.94
2022-10-18T02:22:04.063Z,99626.75
2022-10-18T02:24:51.273Z,99626.09
2022-10-18T02:27:18.461Z,99619.41
2022-10-18T02:29:45.866Z,99624.81
2022-10-18T02:32:21.914Z,99617.66
2022-10-18T02:34:59.125Z,99612.81
2022-10-18T02:37:30.723Z,99619.50
2022-10-18T02:39:58.081Z,99622.38
2022-10-18T02:42:25.195Z,99622.56
2022-10-18T02:44:52.222Z,99618.19
2022-10-18T02:47:19.341Z,99606.13
2022-10-18T02:49:46.388Z,99609.84
2022-10-18T02:52:13.741Z,99607.31
2022-10-18T02:57:37.742Z,99595.91
2022-10-18T03:00:05.707Z,99602.31
2022-10-18T03:02:32.801Z,99608.56
2022-10-18T03:04:59.942Z,99606.03
2022-10-18T03:07:27.043Z,99613.94
2022-10-18T03:09:54.101Z,99621.81
2022-10-18T03:12:22.065Z,99617.91
2022-10-18T03:14:49.115Z,99613.38
2022-10-18T03:17:16.140Z,99624.97
2022-10-18T03:19:43.175Z,99618.94
2022-10-18T03:22:10.223Z,99618.09
2022-10-18T03:24:37.227Z,99619.94
2022-10-18T03:27:04.360Z,99611.88
2022-10-18T03:29:31.548Z,99616.41
2022-10-18T03:31:58.620Z,99619.94
2022-10-18T03:34:25.637Z,99615.78
2022-10-18T03:36:52.732Z,99615.97
2022-10-18T03:39:19.753Z,99609.75
2022-10-18T03:41:46.855Z,99615.13
2022-10-18T03:44:13.929Z,99612.63
2022-10-18T03:46:40.983Z,99616.31
2022-10-18T03:49:07.995Z,99614.69
2022-10-18T03:51:35.108Z,99610.09
2022-10-18T03:54:02.320Z,99608.44
2022-10-18T03:56:29.404Z,99613.00
2022-10-18T03:58:57.122Z,99608.44
2022-10-18T04:01:24.284Z,99610.31
2022-10-18T04:03:51.382Z,99607.63
2022-10-18T04:06:18.505Z,99607.63
2022-10-18T04:08:45.572Z,99613.00
2022-10-18T04:11:12.910Z,99609.91
2022-10-18T04:13:39.960Z,99603.69
2022-10-18T04:16:07.193Z,99611.31
2022-10-18T04:18:34.253Z,99600.56
2022-10-18T04:21:01.369Z,99611.31
2022-10-18T04:23:28.513Z,99607.97
2022-10-18T04:25:55.581Z,99605.28
2022-10-18T04:28:22.676Z,99600.91
2022-10-18T04:30:51.122Z,99606.28
2022-10-18T04:33:18.442Z,99599.22
2022-10-18T04:35:46.060Z,99592.28
2022-10-18T04:38:14.424Z,99596.47
2022-10-18T04:40:41.477Z,99601.00
2022-10-18T04:43:08.649Z,99603.53
2022-10-18T04:45:35.884Z,99606.22
2022-10-18T04:48:03.106Z,99600.00
2022-10-18T04:50:30.134Z,99600.00
2022-10-18T04:52:57.452Z,99589.41
2022-10-18T04:55:24.528Z,99601.84
2022-10-18T04:57:52.430Z,99591.06
2022-10-18T05:00:19.477Z,99590.06
2022-10-18T05:02:46.543Z,99601.66
2022-10-18T05:05:14.293Z,99601.50
2022-10-18T05:07:41.659Z,99594.06
2022-10-18T05:10:09.057Z,99585.16
2022-10-18T05:12:36.138Z,99570.84
2022-10-18T05:15:03.344Z,99577.91
2022-10-18T05:17:30.393Z,99563.78
2022-10-18T05:19:57.447Z,99572.13
2022-10-18T05:22:24.553Z,99572.78
2022-10-18T05:24:51.623Z,99573.81
2022-10-18T05:27:18.877Z,99574.63
2022-10-18T05:29:46.057Z,99579.19
2022-10-18T05:32:13.159Z,99585.41
2022-10-18T05:34:40.300Z,99579.84
2022-10-18T05:37:07.724Z,99583.16
2022-10-18T05:39:34.788Z,99588.38
2022-10-18T05:42:02.499Z,99593.59
2022-10-18T05:44:29.636Z,99586.59
2022-10-18T05:46:56.640Z,99592.09
2022-10-18T05:49:23.857Z,99587.63
2022-10-18T05:51:51.051Z,99593.41
2022-10-18T05:54:18.454Z,99609.28
2022-10-18T05:56:45.486Z,99608.06
2022-10-18T05:59:12.698Z,99616.63
2022-10-18T06:01:40.732Z,99628.88
2022-10-18T06:04:08.600Z,99631.41
2022-10-18T06:06:35.945Z,99637.63
2022-10-18T06:09:05.964Z,99630.81
2022-10-18T06:11:33.130Z,99636.03
2022-10-18T06:14:00.248Z,99639.03
2022-10-18T06:16:32.189Z,99640.94
2022-10-18T06:19:00.152Z,99637.50
2022-10-18T06:21:27.504Z,99656.38
2022-10-18T06:23:56.052Z,99654.97
2022-10-18T06:26:23.499Z,99656.44
2022-10-18T06:28:51.107Z,99662.09
2022-10-18T06:31:18.563Z,99653.81
2022-10-18T06:33:46.116Z,99658.63
2022-10-18T06:36:14.793Z,99652.03
2022-10-18T06:38:41.872Z,99665.59
2022-10-18T06:41:09.342Z,99670.44
2022-10-18T06:43:36.419Z,99669.84
2022-10-18T06:46:05.566Z,99680.06
2022-10-18T06:48:32.991Z,99678.84
2022-10-18T06:51:01.353Z,99696.53
2022-10-18T06:53:29.736Z,99702.38
2022-10-18T06:56:04.745Z,99711.13
2022-10-18T06:58:32.470Z,99709.94
2022-10-18T07:00:59.726Z,99719.03
2022-10-18T07:03:27.282Z,99723.22
2022-10-18T07:05:54.381Z,99720.31
2022-10-18T07:08:21.453Z,99723.88
2022-10-18T07:10:52.992Z,99730.09
2022-10-18T07:13:32.031Z,99736.59
2022-10-18T07:16:05.782Z,99733.97
2022-10-18T07:18:33.772Z,99739.63
2022-10-18T07:21:01.652Z,99744.47
2022-10-18T07:23:28.783Z,99763.81
2022-10-18T07:25:56.016Z,99757.00
2022-10-18T07:28:23.120Z,99760.97
2022-10-18T07:30:50.147Z,99772.25
2022-10-18T07:33:17.243Z,99787.28
2022-10-18T07:35:44.313Z,99790.59
2022-10-18T07:38:11.394Z,99783.63
2022-10-18T07:40:38.576Z,99776.13
2022-10-18T07:43:06.815Z,99779.00
2022-10-18T07:45:35.310Z,99775.03
2022-10-18T07:48:02.363Z,99774.78
2022-10-18T07:50:29.565Z,99769.72
2022-10-18T07:52:56.632Z,99773.03
2022-10-18T07:55:24.000Z,99769.00
2022-10-18T07:57:51.099Z,99768.38
2022-10-18T08:00:18.258Z,99770.44
2022-10-18T08:02:45.280Z,99772.66
2022-10-18T08:05:12.302Z,99771.66
2022-10-18T08:07:39.354Z,99777.88
2022-10-18T08:10:06.500Z,99794.94
2022-10-18T08:12:33.543Z,99791.88
2022-10-18T08:15:00.584Z,99782.72
2022-10-18T08:17:27.621Z,99760.91
2022-10-18T08:20:11.684Z,99738.94
2022-10-18T08:22:39.601Z,99724.22
2022-10-18T08:25:06.999Z,99725.47
2022-10-18T08:27:34.295Z,99716.63
2022-10-18T08:30:02.334Z,99715.84
2022-10-18T08:32:29.966Z,99743.75
2022-10-18T08:34:57.340Z,99774.38
2022-10-18T08:37:24.470Z,99780.06
2022-10-18T08:39:51.491Z,99783.25
2022-10-18T08:42:18.510Z,99797.00
2022-10-18T08:44:47.177Z,99826.50
2022-10-18T08:47:19.077Z,99847.72
2022-10-18T08:49:50.883Z,99854.75
2022-10-18T08:52:37.075Z,99857.78
2022-10-18T08:55:30.969Z,99850.34
2022-10-18T08:57:58.514Z,99849.38
2022-10-18T09:00:27.319Z,99864.88
2022-10-18T09:03:00.383Z,99869.91
2022-10-18T09:05:49.101Z,99885.84
2022-10-18T09:08:25.408Z,99894.81
2022-10-18T09:11:08.036Z,99911.31
2022-10-18T09:13:46.628Z,99951.44
2022-10-18T09:16:22.007Z,99978.59
2022-10-18T09:19:07.892Z,99976.94
2022-10-18T09:21:34.926Z,99980.50
2022-10-18T09:24:18.415Z,99974.00
2022-10-18T09:26:47.162Z,99968.94
2022-10-18T09:29:14.301Z,99952.44
2022-10-18T09:31:41.442Z,99955.31
2022-10-18T09:34:13.951Z,99983.09
2022-10-18T09:36:41.796Z,99999.78
2022-10-18T09:39:12.278Z,99989.69
2022-10-18T09:41:45.297Z,99957.88
2022-10-18T09:44:24.640Z,99916.63
2022-10-18T09:47:01.516Z,99886.88
2022-10-18T09:49:31.642Z,99873.81
2022-10-18T09:52:01.878Z,99849.66
2022-10-18T09:54:34.712Z,99832.44
2022-10-18T09:57:09.885Z,99809.44
2022-10-18T09:59:47.400Z,99789.00
2022-10-18T10:02:18.960Z,99780.63
2022-10-18T10:04:46.102Z,99779.81
2022-10-18T10:07:21.125Z,99779.84
2022-10-18T10:09:57.386Z,99764.63
2022-10-18T10:12:28.916Z,99755.50
2022-10-18T10:15:06.364Z,99758.06
2022-10-18T10:17:34.014Z,99748.84
2022-10-18T10:20:13.888Z,99752.34
2022-10-18T10:22:41.968Z,99740.97
2022-10-18T10:25:20.630Z,99739.28
2022-10-18T10:27:47.921Z,99732.97
2022-10-18T10:30:26.677Z,99730.81
2022-10-18T10:32:54.525Z,99714.44
2022-10-18T10:35:33.875Z,99711.28
2022-10-18T10:38:22.478Z,99701.44
2022-10-18T10:40:50.367Z,99703.38
2022-10-18T10:43:36.657Z,99716.34
2022-10-18T10:46:12.952Z,99691.44
2022-10-18T10:48:43.023Z,99695.63
2022-10-18T10:51:11.030Z,99688.41
2022-10-18T10:53:56.956Z,99681.28
2022-10-18T10:56:28.726Z,99660.31
2022-10-18T10:58:57.061Z,99655.56
2022-10-18T11:01:26.332Z,99647.75
2022-10-18T11:03:55.106Z,99639.56
2022-10-18T11:06:29.701Z,99618.81
2022-10-18T11:08:58.667Z,99599.59
2022-10-18T11:11:39.099Z,99589.75
2022-10-18T11:14:26.583Z,99581.81
2022-10-18T11:17:29.934Z,99570.50
2022-10-18T11:20:11.936Z,99548.59
2022-10-18T11:22:58.546Z,99552.59
2022-10-18T11:25:29.006Z,99546.31
2022-10-18T11:28:04.379Z,99540.63
2022-10-18T11:30:31.448Z,99530.56
2022-10-18T11:33:03.995Z,99528.31
2022-10-18T11:35:52.406Z,99514.09
2022-10-18T11:38:25.234Z,99498.19
2022-10-18T11:40:52.292Z,99508.16
2022-10-18T11:43:24.740Z,99508.84
2022-10-18T11:45:54.397Z,99495.09
2022-10-18T11:48:40.483Z,99483.03
2022-10-18T11:51:25.566Z,99468.09
2022-10-18T11:54:15.566Z,99454.69
2022-10-18T11:56:47.180Z,99457.41
2022-10-18T11:59:37.632Z,99465.59
2022-10-18T12:02:19.986Z,99440.59
2022-10-18T12:04:58.510Z,99438.47
2022-10-18T12:08:01.786Z,99436.78
2022-10-18T12:10:45.718Z,99422.69
2022-10-18T12:13:23.007Z,99415.69
2022-10-18T12:15:51.284Z,99418.56
2022-10-18T12:18:20.394Z,99408.38
2022-10-18T12:20:58.275Z,99408.59
2022-10-18T12:23:33.499Z,99399.59
2022-10-18T12:26:06.044Z,99399.13
2022-10-18T12:28:42.442Z,99396.63
2022-10-18T12:31:18.917Z,99396.19
2022-10-18T12:33:48.474Z,99393.69
2022-10-18T12:36:35.529Z,99381.59
2022-10-18T12:39:05.921Z,99379.09
2022-10-18T12:41:34.337Z,99370.66
2022-10-18T12:44:06.164Z,99373.50
2022-10-18T12:46:46.860Z,99354.19
2022-10-18T12:49:17.023Z,99349.59
2022-10-18T12:51:54.665Z,99351.72
2022-10-18T12:54:31.825Z,99337.50
2022-10-18T12:57:00.099Z,99333.38
2022-10-18T12:59:27.204Z,99334.44
2022-10-18T13:01:54.332Z,99342.38
2022-10-18T13:04:39.437Z,99342.94
2022-10-18T13:07:20.605Z,99336.31
2022-10-18T13:10:06.570Z,99336.91
2022-10-18T13:12:49.721Z,99342.94
2022-10-18T13:15:38.941Z,99340.94
2022-10-18T13:18:26.500Z,99329.44
2022-10-18T13:21:02.965Z,99340.69
2022-10-18T13:23:47.663Z,99342.94
2022-10-18T13:26:31.881Z,99341.28
2022-10-18T13:29:11.792Z,99334.75
2022-10-18T13:31:48.681Z,99341.66
2022-10-18T13:34:23.033Z,99344.59
2022-10-18T13:37:04.349Z,99346.16
2022-10-18T13:39:32.294Z,99338.81
2022-10-18T13:42:00.671Z,99344.50
2022-10-18T13:44:37.385Z,99349.81
2022-10-18T13:47:04.427Z,99355.00
2022-10-18T13:49:43.787Z,99352.06
2022-10-18T13:52:18.626Z,99354.16
2022-10-18T13:55:05.922Z,99354.06
2022-10-18T13:57:44.912Z,99362.44
2022-10-18T14:00:30.618Z,99360.56
2022-10-18T14:03:00.581Z,99364.94
2022-10-18T14:05:41.895Z,99380.81
2022-10-18T14:08:15.694Z,99377.94
2022-10-18T14:11:01.374Z,99382.81
2022-10-18T14:13:45.047Z,99380.56
2022-10-18T14:16:17.995Z,99379.38
2022-10-18T14:18:47.137Z,99389.88
2022-10-18T14:21:21.824Z,99390.94
2022-10-18T14:23:50.615Z,99388.47
2022-10-18T14:26:19.915Z,99390.44
2022-10-18T14:29:01.850Z,99388.81
2022-10-18T14:31:29.980Z,99392.09
2022-10-18T14:33:58.741Z,99397.53
2022-10-18T14:36:29.334Z,99400.88
2022-10-18T14:38:56.434Z,99395.88
2022-10-18T14:41:25.063Z,99405.13
2022-10-18T14:43:53.122Z,99407.84
2022-10-18T14:46:20.250Z,99411.84
2022-10-18T14:48:58.308Z,99413.13
2022-10-18T14:51:26.407Z,99407.78
2022-10-18T14:53:53.935Z,99412.41
2022-10-18T14:56:26.612Z,99419.50
2022-10-18T14:58:54.952Z,99422.34
2022-10-18T15:01:24.346Z,99424.84
2022-10-18T15:03:55.327Z,99426.28
2022-10-18T15:06:22.421Z,99429.00
2022-10-18T15:08:53.149Z,99428.28
2022-10-18T15:11:20.280Z,99418.91
2022-10-18T15:13:55.107Z,99425.72
2022-10-18T15:16:23.940Z,99419.97
2022-10-18T15:19:01.290Z,99424.06
2022-10-18T15:21:28.348Z,99420.75
2022-10-18T15:24:15.387Z,99429.97
2022-10-18T15:26:44.606Z,99422.13
2022-10-18T15:29:16.799Z,99434.75
2022-10-18T15:31:44.466Z,99430.56
2022-10-18T15:34:19.669Z,99430.56
2022-10-18T15:36:47.533Z,99438.13
2022-10-18T15:39:16.587Z,99444.63
2022-10-18T15:41:48.996Z,99438.59
2022-10-18T15:44:21.881Z,99441.38
2022-10-18T15:46:49.982Z,99446.22
2022-10-18T15:49:35.812Z,99452.47
2022-10-18T15:52:08.847Z,99461.28
2022-10-18T15:54:36.196Z,99472.84
2022-10-18T15:57:12.181Z,99478.13
2022-10-18T16:00:08.933Z,99479.63
2022-10-18T16:02:42.846Z,99476.13
2022-10-18T16:05:13.889Z,99496.66
2022-10-18T16:07:40.946Z,99495.44
2022-10-18T16:10:14.682Z,99503.63
2022-10-18T16:12:41.849Z,99506.38
2022-10-18T16:15:09.433Z,99506.84
2022-10-18T16:17:36.491Z,99507.06
2022-10-18T16:20:03.802Z,99509.56
2022-10-18T16:22:33.399Z,99516.47
2022-10-18T16:25:03.520Z,99524.00
2022-10-18T16:27:30.764Z,99528.22
2022-10-18T16:29:58.001Z,99533.03
2022-10-18T16:32:25.130Z,99533.25
2022-10-18T16:34:52.140Z,99537.84
2022-10-18T16:37:19.208Z,99541.63
2022-10-18T16:39:46.296Z,99545.38
2022-10-18T16:42:13.338Z,99550.03
2022-10-18T16:44:40.464Z,99555.88
2022-10-18T16:47:07.596Z,99565.06
2022-10-18T16:49:34.765Z,99568.00
2022-10-18T16:52:01.891Z,99567.41
2022-10-18T16:54:29.056Z,99578.47
2022-10-18T16:56:56.346Z,99581.84
2022-10-18T16:59:26.755Z,99583.13
2022-10-18T17:01:53.996Z,99581.88
2022-10-18T17:04:21.127Z,99590.44
2022-10-18T17:06:49.118Z,99600.69
2022-10-18T17:09:16.530Z,99604.69
2022-10-18T17:11:43.585Z,99607.59
2022-10-18T17:14:10.660Z,99614.06
2022-10-18T17:16:38.878Z,99618.66
2022-10-18T17:19:07.444Z,99612.63
2022-10-18T17:21:34.843Z,99622.03
2022-10-18T17:24:03.204Z,99621.19
2022-10-18T17:26:30.629Z,99625.16
2022-10-18T17:28:59.524Z,99628.91
2022-10-18T17:31:27.274Z,99642.94
2022-10-18T17:33:58.553Z,99645.03
2022-10-18T17:36:25.778Z,99659.63
2022-10-18T17:38:53.737Z,99660.03
2022-10-18T17:41:20.909Z,99664.88
2022-10-18T17:43:50.698Z,99675.91
2022-10-18T17:46:18.083Z,99676.75
2022-10-18T17:48:45.682Z,99678.84
2022-10-18T17:51:14.853Z,99677.81
2022-10-18T17:53:42.187Z,99673.81
2022-10-18T17:56:10.553Z,99683.88
2022-10-18T17:58:37.949Z,99686.78
2022-10-18T18:01:16.388Z,99686.16
2022-10-18T18:03:43.540Z,99688.03
2022-10-18T18:06:16.643Z,99685.75
2022-10-18T18:08:43.983Z,99684.28
2022-10-18T18:11:11.026Z,99690.13
2022-10-18T18:13:38.083Z,99691.16
2022-10-18T18:16:15.771Z,99688.91
2022-10-18T18:18:43.411Z,99690.31
2022-10-18T18:21:10.612Z,99697.22
2022-10-18T18:23:37.651Z,99690.31
2022-10-18T18:26:05.811Z,99695.94
2022-10-18T18:28:33.388Z,99702.84
2022-10-18T18:31:04.504Z,99697.00
2022-10-18T18:33:32.471Z,99693.69
2022-10-18T18:35:59.526Z,99699.09
2022-10-18T18:38:26.662Z,99696.78
2022-10-18T18:41:07.454Z,99699.94
2022-10-18T18:43:35.088Z,99703.03
2022-10-18T18:46:02.772Z,99702.84
2022-10-18T18:48:31.324Z,99706.59
2022-10-18T18:50:58.423Z,99703.88
2022-10-18T18:53:28.654Z,99720.13
2022-10-18T18:56:03.943Z,99724.72
2022-10-18T18:58:31.613Z,99720.13
2022-10-18T19:00:58.761Z,99718.47
2022-10-18T19:03:25.926Z,99723.88
2022-10-18T19:06:01.999Z,99712.22
2022-10-18T19:08:29.115Z,99704.28
2022-10-18T19:10:56.211Z,99704.47
2022-10-18T19:13:23.289Z,99702.00
2022-10-18T19:15:50.316Z,99701.38
2022-10-18T19:18:20.393Z,99702.19
2022-10-18T19:20:50.138Z,99701.78
2022-10-18T19:23:17.207Z,99706.59
2022-10-18T19:25:44.705Z,99699.25
2022-10-18T19:28:11.749Z,99702.19
2022-10-18T19:30:38.779Z,99694.66
2022-10-18T19:33:05.956Z,99703.00
2022-10-18T19:35:33.033Z,99701.34
2022-10-18T19:38:00.082Z,99699.88
2022-10-18T19:40:27.115Z,99702.56
2022-10-18T19:42:54.263Z,99699.88
2022-10-18T19:45:21.347Z,99695.50
2022-10-18T19:47:48.413Z,99697.56
2022-10-18T19:50:15.541Z,99695.91
2022-10-18T19:52:42.614Z,99701.72
2022-10-18T19:55:09.663Z,99692.97
2022-10-18T19:57:36.699Z,99693.41
2022-10-18T20:00:06.788Z,99699.66
2022-10-18T20:02:38.789Z,99687.97
2022-10-18T20:05:06.208Z,99691.72
2022-10-18T20:07:33.272Z,99695.47
2022-10-18T20:10:00.359Z,99693.59
2022-10-18T20:12:27.439Z,99696.50
2022-10-18T20:14:54.524Z,99694.44
2022-10-18T20:17:21.999Z,99697.75
2022-10-18T20:19:49.075Z,99695.03
2022-10-18T20:22:16.147Z,99699.66
2022-10-18T20:24:43.266Z,99697.97
2022-10-18T20:27:10.324Z,99701.28
2022-10-18T20:29:37.374Z,99704.22
2022-10-18T20:32:04.472Z,99709.00
2022-10-18T20:34:31.599Z,99705.06
2022-10-18T20:36:58.678Z,99710.69
2022-10-18T20:39:25.779Z,99717.97
2022-10-18T20:41:52.803Z,99713.78
2022-10-18T20:44:20.888Z,99709.41
2022-10-18T20:46:48.031Z,99719.41
2022-10-18T20:49:16.358Z,99717.75
2022-10-18T20:51:43.822Z,99710.84
2022-10-18T20:54:11.105Z,99717.50
2022-10-18T20:56:38.765Z,99713.13
2022-10-18T20:59:06.358Z,99708.34
2022-10-18T21:01:34.074Z,99696.25
2022-10-18T21:04:02.027Z,99698.97
2022-10-18T21:06:30.719Z,99696.44
2022-10-18T21:08:58.855Z,99690.38
2022-10-18T21:11:26.571Z,99675.38
2022-10-18T21:13:54.764Z,99670.34
2022-10-18T21:16:21.893Z,99676.81
2022-10-18T21:18:49.198Z,99677.19
2022-10-18T21:21:18.064Z,99678.47
2022-10-18T21:23:45.731Z,99674.47
2022-10-18T21:26:20.218Z,99672.38
2022-10-18T21:28:49.269Z,99669.47
2022-10-18T21:31:20.467Z,99672.56
2022-10-18T21:33:47.981Z,99673.59
2022-10-18T21:36:15.111Z,99671.31
2022-10-18T21:38:45.819Z,99672.72
2022-10-18T21:41:13.857Z,99671.47
2022-10-18T21:43:42.901Z,99663.53
2022-10-18T21:46:11.601Z,99666.44
2022-10-18T21:48:42.821Z,99664.13
2022-10-18T21:51:10.194Z,99662.50
2022-10-18T21:53:37.294Z,99672.25
2022-10-18T21:56:11.402Z,99671.84
2022-10-18T21:58:39.082Z,99667.28
2022-10-18T22:01:12.207Z,99676.88
2022-10-18T22:03:39.776Z,99672.31
2022-10-18T22:06:08.963Z,99676.47
2022-10-18T22:08:35.997Z,99672.72
2022-10-18T22:11:03.572Z,99670.66
2022-10-18T22:13:30.794Z,99672.34
2022-10-18T22:16:00.458Z,99674.81
2022-10-18T22:18:27.552Z,99671.91
2022-10-18T22:20:59.369Z,99677.13
2022-10-18T22:23:33.124Z,99671.91
2022-10-18T22:26:07.887Z,99673.59
2022-10-18T22:28:35.293Z,99676.28
2022-10-18T22:31:02.439Z,99674.22
2022-10-18T22:33:29.572Z,99661.72
2022-10-18T22:35:56.799Z,99661.72
2022-10-18T22:38:23.845Z,99660.06
2022-10-18T22:40:51.818Z,99652.78
2022-10-18T22:43:18.942Z,99657.34
2022-10-18T22:45:45.979Z,99650.25
2022-10-18T22:48:13.066Z,99657.34
2022-10-18T22:50:40.184Z,99659.03
2022-10-18T22:53:07.232Z,99658.00
2022-10-18T22:55:34.303Z,99662.56
2022-10-18T22:58:01.352Z,99658.19
2022-10-18T23:00:28.473Z,99657.34
2022-10-18T23:02:55.552Z,99653.63
2022-10-18T23:05:22.612Z,99647.38
2022-10-18T23:07:49.776Z,99649.03
2022-10-18T23:10:16.885Z,99646.34
2022-10-18T23:12:43.993Z,99642.78
2022-10-18T23:15:11.630Z,99637.38
2022-10-18T23:17:39.062Z,99641.13
2022-10-18T23:20:06.274Z,99641.94
2022-10-18T23:22:33.519Z,99647.38
2022-10-18T23:25:00.715Z,99640.91
2022-10-18T23:27:28.381Z,99640.09
2022-10-18T23:29:55.422Z,99639.06
2022-10-18T23:32:22.469Z,99641.94
2022-10-18T23:34:49.580Z,99642.78
2022-10-18T23:37:16.633Z,99635.69
2022-10-18T23:39:43.746Z,99652.13
2022-10-18T23:42:10.801Z,99669.22
2022-10-18T23:44:37.851Z,99659.41
2022-10-18T23:47:04.888Z,99660.69
2022-10-18T23:49:31.902Z,99665.25
2022-10-18T23:51:58.929Z,99661.91
2022-10-18T23:54:26.019Z,99655.84
2022-10-18T23:56:53.075Z,99652.53
2022-10-18T23:59:20.634Z,99644.81
